Time;durP1;ratioP1;P1;durP2;ratioP2;P2;SDS_P1;SDS_P2;PMS_P1;PMS_P2;Temp;Humidity;BMP_temperature;BMP_pressure;BME280_temperature;BME280_humidity;BME280_pressure;Samples;Min_cycle;Max_cycle;Signal;HPM_P1;HPM_P2
2022/07/19 00:01:17;;;;;;;1.85;1.52;;;;;;;27.83;42.62;101806.56;5029205;28;20032;-78
2022/07/19 00:03:43;;;;;;;1.83;1.40;;;;;;;27.82;42.40;101803.00;5029272;28;20038;-77
2022/07/19 00:06:08;;;;;;;1.67;1.40;;;;;;;27.82;42.39;101805.69;5029533;28;20040;-77
2022/07/19 00:08:33;;;;;;;2.15;1.42;;;;;;;27.83;42.69;101803.88;5027615;28;20551;-77
2022/07/19 00:10:59;;;;;;;1.70;1.50;;;;;;;27.83;42.62;101795.84;5011061;28;20048;-77
2022/07/19 00:13:24;;;;;;;1.95;1.70;;;;;;;27.82;42.30;101804.81;5029020;28;20112;-76
2022/07/19 00:15:49;;;;;;;1.95;1.73;;;;;;;27.82;42.56;101804.81;5011567;28;20033;-76
2022/07/19 00:18:15;;;;;;;1.90;1.42;;;;;;;27.81;42.50;101797.75;5027632;28;20025;-76
2022/07/19 00:20:40;;;;;;;1.80;1.60;;;;;;;27.80;42.47;101804.91;5031383;28;20025;-76
2022/07/19 00:23:05;;;;;;;1.75;1.42;;;;;;;27.81;42.59;101797.75;5031798;28;20095;-75
2022/07/19 00:25:31;;;;;;;1.90;1.55;;;;;;;27.80;42.35;101782.59;5033012;28;20056;-76
2022/07/19 00:27:56;;;;;;;2.45;1.48;;;;;;;27.81;42.34;101789.72;5031553;28;20052;-76
2022/07/19 00:30:22;;;;;;;1.70;1.50;;;;;;;27.79;42.62;101791.56;5032776;28;20044;-76
2022/07/19 00:32:47;;;;;;;1.65;1.50;;;;;;;27.77;42.63;101797.00;5033009;28;20018;-76
2022/07/19 00:35:12;;;;;;;1.90;1.50;;;;;;;27.78;42.58;101800.53;5033042;28;20091;-76
2022/07/19 00:37:38;;;;;;;2.47;1.40;;;;;;;27.78;42.65;101801.41;5031509;28;20398;-75
2022/07/19 00:40:03;;;;;;;1.88;1.67;;;;;;;27.78;42.29;101797.88;5031129;28;20045;-76
2022/07/19 00:42:29;;;;;;;1.80;1.50;;;;;;;27.77;42.44;101801.47;5032391;28;20037;-76
2022/07/19 00:44:54;;;;;;;1.65;1.50;;;;;;;27.76;42.68;101799.72;5032899;28;20039;-76
2022/07/19 00:47:20;;;;;;;1.95;1.40;;;;;;;27.74;42.43;101793.59;5032818;28;20033;-79
2022/07/19 00:49:45;;;;;;;2.00;1.60;;;;;;;27.76;42.41;101797.06;5032562;28;20029;-76
2022/07/19 00:52:14;;;;;;;2.00;1.75;;;;;;;27.75;42.62;101795.34;5032323;28;20029;-76
2022/07/19 00:54:41;;;;;;;2.10;1.55;;;;;;;27.75;42.53;101803.38;5030594;28;20053;-76
2022/07/19 00:57:09;;;;;;;1.58;1.42;;;;;;;27.74;42.53;101793.59;5032043;28;20037;-76
2022/07/19 00:59:34;;;;;;;1.88;1.55;;;;;;;27.70;42.75;101791.97;5032043;28;20545;-76
2022/07/19 01:02:00;;;;;;;1.90;1.40;;;;;;;27.71;42.82;101791.91;5032506;28;20053;-76
2022/07/19 01:04:27;;;;;;;1.70;1.58;;;;;;;27.71;42.64;101785.66;5031106;28;20030;-76
2022/07/19 01:06:53;;;;;;;1.63;1.50;;;;;;;27.73;42.83;101795.41;5032510;28;20033;-76
2022/07/19 01:09:18;;;;;;;1.70;1.40;;;;;;;27.72;42.46;101799.00;5032332;28;20531;-75
2022/07/19 01:11:43;;;;;;;1.90;1.48;;;;;;;27.71;42.45;101794.59;5031413;28;20029;-78
2022/07/19 01:14:09;;;;;;;1.73;1.58;;;;;;;27.73;42.53;101797.19;5031930;28;20467;-76
2022/07/19 01:16:34;;;;;;;1.90;1.70;;;;;;;27.71;42.57;101783.84;5032124;28;20124;-76
2022/07/19 01:19:00;;;;;;;1.70;1.50;;;;;;;27.69;42.71;101791.09;5031839;28;20052;-76
2022/07/19 01:21:26;;;;;;;1.90;1.60;;;;;;;27.70;42.61;101781.25;5030257;28;20123;-76
2022/07/19 01:23:51;;;;;;;2.03;1.60;;;;;;;27.69;42.77;101785.72;5031770;28;20364;-76
2022/07/19 01:26:17;;;;;;;1.70;1.50;;;;;;;27.69;42.52;101785.72;5030785;28;20045;-76
2022/07/19 01:28:43;;;;;;;1.83;1.48;;;;;;;27.69;42.83;101784.88;5030159;28;20045;-78
2022/07/19 01:31:08;;;;;;;1.63;1.30;;;;;;;27.68;42.64;101791.19;5030861;28;20116;-76
2022/07/19 01:33:45;;;;;;;1.98;1.60;;;;;;;27.67;42.72;101781.38;5031843;28;20471;-79
2022/07/19 01:36:10;;;;;;;2.08;1.55;;;;;;;27.67;42.71;101789.44;5031406;28;20029;-76
2022/07/19 01:38:37;;;;;;;1.67;1.58;;;;;;;27.67;42.60;101790.31;5031870;28;20029;-76
2022/07/19 01:41:03;;;;;;;1.77;1.60;;;;;;;27.68;42.65;101791.19;5030248;28;20033;-76
2022/07/19 01:43:29;;;;;;;1.55;1.40;;;;;;;27.66;42.83;101790.34;5031270;28;20040;-76
2022/07/19 01:45:54;;;;;;;2.17;1.48;;;;;;;27.65;42.50;101794.84;5031244;28;20032;-75
2022/07/19 01:48:20;;;;;;;1.60;1.50;;;;;;;27.66;42.60;101788.56;5024054;28;20030;-76
2022/07/19 01:50:46;;;;;;;2.05;1.60;;;;;;;27.63;42.85;101791.34;5031345;28;20100;-77
2022/07/19 01:53:12;;;;;;;1.67;1.40;;;;;;;27.63;42.53;101796.72;5031574;28;20167;-76
2022/07/19 01:55:37;;;;;;;2.30;1.60;;;;;;;27.65;42.42;101791.28;5031170;28;20931;-76
2022/07/19 01:58:04;;;;;;;1.77;1.60;;;;;;;27.63;42.96;101790.50;5030917;28;20049;-76
2022/07/19 02:00:29;;;;;;;2.28;1.55;;;;;;;27.62;42.84;101789.63;5031372;28;20044;-76
2022/07/19 02:02:54;;;;;;;2.15;1.70;;;;;;;27.63;42.55;101782.47;5029700;28;20034;-76
2022/07/19 02:05:20;;;;;;;2.75;1.70;;;;;;;27.63;42.54;101779.78;5031248;28;20141;-76
2022/07/19 02:07:45;;;;;;;2.13;1.60;;;;;;;27.63;42.83;101782.47;5030796;28;20030;-76
2022/07/19 02:10:11;;;;;;;2.20;1.58;;;;;;;27.63;42.84;101785.16;5029677;28;20033;-76
2022/07/19 02:12:36;;;;;;;2.67;1.55;;;;;;;27.61;42.81;101776.28;5031180;28;20388;-77
2022/07/19 02:15:03;;;;;;;1.58;1.40;;;;;;;27.61;42.97;101779.84;5031091;28;20160;-76
2022/07/19 02:17:28;;;;;;;1.60;1.50;;;;;;;27.61;42.83;101778.97;5030938;28;20130;-77
2022/07/19 02:19:54;;;;;;;1.83;1.52;;;;;;;27.61;42.61;101773.63;5030535;28;20113;-77
2022/07/19 02:22:19;;;;;;;1.73;1.58;;;;;;;27.61;42.92;101778.97;5029375;28;20036;-77
2022/07/19 02:24:44;;;;;;;1.70;1.60;;;;;;;27.60;42.96;101778.09;5030729;28;20037;-77
2022/07/19 02:27:11;;;;;;;1.70;1.52;;;;;;;27.60;42.74;101775.44;5030891;28;20049;-77
2022/07/19 02:29:36;;;;;;;1.65;1.50;;;;;;;27.59;42.68;101780.84;5030710;28;20468;-76
2022/07/19 02:32:02;;;;;;;2.85;1.60;;;;;;;27.58;43.03;101771.06;5029356;28;20129;-77
2022/07/19 02:34:27;;;;;;;1.70;1.50;;;;;;;27.57;42.57;101778.22;5030747;28;20028;-77
2022/07/19 02:36:52;;;;;;;2.05;1.60;;;;;;;27.58;42.81;101779.09;5029533;28;20045;-77
2022/07/19 02:39:18;;;;;;;1.95;1.63;;;;;;;27.58;42.74;101781.78;5029846;28;20488;-77
2022/07/19 02:41:43;;;;;;;1.73;1.42;;;;;;;27.58;42.76;101773.72;5030394;28;20108;-76
2022/07/19 02:44:08;;;;;;;2.28;1.60;;;;;;;27.57;42.61;101780.91;5030353;28;20032;-77
2022/07/19 02:46:34;;;;;;;2.30;1.70;;;;;;;27.58;43.11;101784.44;5029270;28;20040;-77
2022/07/19 02:48:59;;;;;;;1.88;1.50;;;;;;;27.56;43.24;101779.19;5030365;28;20112;-77
2022/07/19 02:51:25;;;;;;;2.00;1.63;;;;;;;27.56;42.80;101781.84;5029762;28;20060;-77
2022/07/19 02:53:51;;;;;;;2.67;1.50;;;;;;;27.57;42.79;101782.72;5030041;28;20062;-77
2022/07/19 02:56:16;;;;;;;1.70;1.50;;;;;;;27.56;42.84;101786.34;5029857;28;20167;-77
2022/07/19 02:58:42;;;;;;;1.70;1.50;;;;;;;27.54;42.88;101777.50;5028731;28;20060;-77
2022/07/19 03:01:07;;;;;;;2.00;1.65;;;;;;;27.54;42.87;101773.00;5030048;28;20036;-77
2022/07/19 03:03:46;;;;;;;1.88;1.60;;;;;;;27.53;43.07;101773.06;5030056;28;20038;-77
2022/07/19 03:06:14;;;;;;;2.30;1.77;;;;;;;27.53;42.94;101770.38;5028710;28;20037;-77
2022/07/19 03:08:39;;;;;;;1.70;1.60;;;;;;;27.53;43.06;101768.59;5029701;28;20040;-77
2022/07/19 03:11:05;;;;;;;2.28;1.70;;;;;;;27.52;43.05;101765.97;5029588;28;20029;-77
2022/07/19 03:13:30;;;;;;;2.08;1.70;;;;;;;27.51;42.79;101770.44;5029913;28;20466;-77
2022/07/19 03:15:56;;;;;;;2.33;1.50;;;;;;;27.52;42.79;101765.97;5028857;28;20037;-77
2022/07/19 03:18:21;;;;;;;2.10;1.80;;;;;;;27.50;42.77;101767.81;5029399;28;20058;-77
2022/07/19 03:20:46;;;;;;;1.75;1.50;;;;;;;27.51;43.10;101767.75;5029549;28;20033;-77
2022/07/19 03:23:12;;;;;;;2.08;1.60;;;;;;;27.50;42.90;101765.16;5029820;28;20052;-77
2022/07/19 03:25:37;;;;;;;2.20;1.70;;;;;;;27.49;42.98;101769.63;5029314;28;20029;-76
2022/07/19 03:28:03;;;;;;;1.73;1.50;;;;;;;27.50;42.76;101767.81;5027873;28;20033;-76
2022/07/19 03:30:29;;;;;;;1.80;1.60;;;;;;;27.47;42.80;101763.47;5029527;28;20038;-77
2022/07/19 03:32:54;;;;;;;2.08;1.63;;;;;;;27.46;43.01;101761.72;5029650;28;20044;-78
2022/07/19 03:35:20;;;;;;;2.83;1.80;;;;;;;27.46;42.89;101767.06;5029569;28;20045;-77
2022/07/19 03:37:46;;;;;;;1.88;1.67;;;;;;;27.47;43.25;101763.47;5027488;28;20031;-77
2022/07/19 03:40:12;;;;;;;1.70;1.58;;;;;;;27.48;43.04;101764.34;5029320;28;20033;-77
2022/07/19 03:42:37;;;;;;;1.90;1.70;;;;;;;27.45;43.06;101763.50;5029403;28;20079;-78
2022/07/19 03:45:03;;;;;;;2.50;1.80;;;;;;;27.45;42.79;101760.84;5029275;28;20063;-77
2022/07/19 03:47:28;;;;;;;2.03;1.70;;;;;;;27.46;43.07;101756.34;5029238;28;20017;-76
2022/07/19 03:49:54;;;;;;;2.28;1.70;;;;;;;27.45;43.05;101760.84;5029491;28;20112;-77
2022/07/19 03:52:19;;;;;;;1.98;1.70;;;;;;;27.45;42.89;101752.81;5029166;28;20109;-77
2022/07/19 03:54:45;;;;;;;2.20;1.67;;;;;;;27.44;43.04;101755.56;5026989;28;20488;-77
2022/07/19 03:57:10;;;;;;;1.88;1.58;;;;;;;27.44;42.94;101758.25;5028824;28;21072;-77
2022/07/19 03:59:35;;;;;;;2.00;1.67;;;;;;;27.42;43.15;101755.63;5029302;28;20156;-78
2022/07/19 04:02:01;;;;;;;1.90;1.67;;;;;;;27.43;43.17;101749.34;5029184;28;20061;-77
2022/07/19 04:04:26;;;;;;;2.63;1.83;;;;;;;27.43;42.96;101760.06;5027958;28;20049;-77
2022/07/19 04:06:51;;;;;;;2.00;1.75;;;;;;;27.41;43.02;101753.88;5027857;28;20423;-76
2022/07/19 04:09:17;;;;;;;3.55;1.80;;;;;;;27.44;42.88;101753.75;5028350;28;20073;-78
2022/07/19 04:11:42;;;;;;;2.17;1.70;;;;;;;27.42;42.97;101747.59;5029224;28;20064;-78
2022/07/19 04:14:07;;;;;;;1.80;1.60;;;;;;;27.43;43.07;101752.03;5027774;28;20821;-77
2022/07/19 04:16:33;;;;;;;2.13;1.70;;;;;;;27.44;42.82;101759.13;5029146;28;20083;-78
2022/07/19 04:18:59;;;;;;;1.70;1.52;;;;;;;27.43;42.89;101756.50;5027849;28;20112;-78
2022/07/19 04:21:24;;;;;;;1.90;1.70;;;;;;;27.43;42.71;101759.19;5028449;28;20102;-77
2022/07/19 04:23:49;;;;;;;2.42;1.70;;;;;;;27.43;42.84;101759.19;5028633;28;20034;-77
2022/07/19 04:26:15;;;;;;;1.70;1.60;;;;;;;27.41;42.84;101756.56;5027693;28;20033;-77
2022/07/19 04:28:40;;;;;;;1.85;1.60;;;;;;;27.43;43.08;101762.72;5029161;28;20108;-77
2022/07/19 04:31:06;;;;;;;2.50;1.77;;;;;;;27.43;42.80;101756.50;5028343;28;20551;-77
2022/07/19 04:33:31;;;;;;;1.90;1.70;;;;;;;27.43;42.90;101754.69;5028620;28;20049;-78
2022/07/19 04:35:56;;;;;;;1.83;1.63;;;;;;;27.42;42.94;101758.31;5027929;28;20403;-77
2022/07/19 04:38:22;;;;;;;2.72;1.73;;;;;;;27.43;42.76;101761.84;5028672;28;20030;-78
2022/07/19 04:40:47;;;;;;;2.10;1.75;;;;;;;27.43;42.95;101767.22;5028676;28;20120;-78
2022/07/19 04:43:13;;;;;;;2.00;1.80;;;;;;;27.42;42.89;101765.47;5028589;28;20033;-77
2022/07/19 04:45:42;;;;;;;2.15;1.70;;;;;;;27.43;42.76;101768.09;5027673;28;20037;-77
2022/07/19 04:48:07;;;;;;;2.00;1.75;;;;;;;27.42;42.71;101763.66;5028754;28;20036;-78
2022/07/19 04:50:33;;;;;;;2.00;1.60;;;;;;;27.43;42.77;101764.53;5028193;28;20057;-78
2022/07/19 04:52:58;;;;;;;2.22;1.80;;;;;;;27.43;42.72;101767.22;5027337;28;20028;-78
2022/07/19 04:55:24;;;;;;;2.00;1.80;;;;;;;27.43;42.83;101767.22;5028348;28;20144;-79
2022/07/19 04:57:49;;;;;;;2.47;1.60;;;;;;;27.44;42.86;101766.28;5028665;28;20060;-77
2022/07/19 05:00:15;;;;;;;2.28;1.80;;;;;;;27.43;42.65;101768.09;5028614;28;20372;-78
2022/07/19 05:02:40;;;;;;;2.08;1.80;;;;;;;27.43;42.88;101768.09;5027860;28;20069;-78
2022/07/19 05:05:06;;;;;;;2.47;1.90;;;;;;;27.43;42.71;101770.75;5028669;28;20483;-78
2022/07/19 05:07:32;;;;;;;1.90;1.70;;;;;;;27.42;42.77;101760.97;5031790;28;20033;-78
2022/07/19 05:09:57;;;;;;;2.38;1.80;;;;;;;27.41;42.63;101753.88;5031838;28;20040;-78
2022/07/19 05:12:23;;;;;;;2.22;1.90;;;;;;;27.41;43.00;101756.56;5030265;28;20125;-78
2022/07/19 05:14:48;;;;;;;2.28;1.80;;;;;;;27.41;43.10;101758.34;5011252;28;20056;-78
2022/07/19 05:17:14;;;;;;;2.20;1.90;;;;;;;27.41;43.03;101753.00;5031032;28;20041;-78
2022/07/19 05:19:40;;;;;;;2.20;1.80;;;;;;;27.41;42.78;101766.41;5032058;28;20021;-78
2022/07/19 05:22:05;;;;;;;2.33;1.90;;;;;;;27.41;42.72;101764.59;5031114;28;20025;-78
2022/07/19 05:24:30;;;;;;;2.00;1.80;;;;;;;27.43;42.83;101759.19;5030694;28;20030;-78
2022/07/19 05:26:56;;;;;;;2.65;1.90;;;;;;;27.44;42.70;101760.94;5031619;28;20099;-78
2022/07/19 05:29:21;;;;;;;2.42;1.67;;;;;;;27.44;42.70;101759.13;5031712;28;20029;-78
2022/07/19 05:31:47;;;;;;;2.10;1.70;;;;;;;27.43;42.67;101760.06;5031172;28;20033;-78
2022/07/19 05:34:12;;;;;;;2.40;1.90;;;;;;;27.44;42.92;101752.88;5030362;28;20124;-78
2022/07/19 05:36:38;;;;;;;2.30;1.90;;;;;;;27.45;42.74;101757.28;5031521;28;20029;-78
2022/07/19 05:39:03;;;;;;;2.22;1.90;;;;;;;27.45;42.82;101755.47;5031506;28;20040;-78
2022/07/19 05:41:29;;;;;;;2.28;1.80;;;;;;;27.47;42.59;101758.09;5030613;28;20026;-79
2022/07/19 05:43:54;;;;;;;2.38;2.00;;;;;;;27.48;42.63;101758.97;5030935;28;20053;-77
2022/07/19 05:46:19;;;;;;;2.35;1.92;;;;;;;27.47;42.71;101766.13;5031436;28;20079;-78
2022/07/19 05:48:45;;;;;;;2.40;2.00;;;;;;;27.48;42.49;101758.97;5031475;28;20365;-78
2022/07/19 05:51:11;;;;;;;2.80;1.77;;;;;;;27.50;42.39;101765.16;5031177;28;20029;-78
2022/07/19 05:53:37;;;;;;;2.38;1.90;;;;;;;27.50;42.78;101774.06;5031290;28;20045;-78
2022/07/19 05:56:04;;;;;;;2.17;1.98;;;;;;;27.55;42.31;101773.88;5030697;28;20041;-77
2022/07/19 05:58:29;;;;;;;1.70;1.58;;;;;;;27.62;42.23;101773.56;5031129;28;20045;-78
2022/07/19 06:03:39;;;;;;;2.20;1.80;;;;;;;27.74;41.97;101759.63;5031097;28;20068;-78
2022/07/19 06:06:04;;;;;;;2.10;1.90;;;;;;;27.77;41.85;101762.16;5031272;28;20052;-78
2022/07/19 06:08:30;;;;;;;1.98;1.75;;;;;;;27.77;42.02;101751.44;5029542;28;20498;-78
2022/07/19 06:10:55;;;;;;;2.20;1.80;;;;;;;27.83;41.40;101761.00;5030563;28;20480;-78
2022/07/19 06:13:22;;;;;;;2.40;2.20;;;;;;;27.84;41.64;101766.31;5030906;28;20018;-78
2022/07/19 06:15:47;;;;;;;2.30;1.88;;;;;;;27.89;41.54;101757.19;5031011;28;20045;-79
2022/07/19 06:18:12;;;;;;;2.75;2.10;;;;;;;27.89;41.54;101750.03;5029241;28;20064;-78
2022/07/19 06:20:38;;;;;;;2.30;2.00;;;;;;;27.90;41.66;101754.44;5029893;28;20574;-78
2022/07/19 06:23:04;;;;;;;2.40;1.90;;;;;;;27.92;41.60;101757.06;5030725;28;20043;-77
2022/07/19 06:25:29;;;;;;;3.05;1.90;;;;;;;27.91;41.53;101758.00;5030984;28;20077;-78
2022/07/19 06:27:54;;;;;;;2.00;1.80;;;;;;;27.89;41.53;101755.38;5030232;28;20171;-78
2022/07/19 06:30:20;;;;;;;2.17;1.98;;;;;;;27.91;41.38;101756.19;5030472;28;20037;-78
2022/07/19 06:32:45;;;;;;;2.15;1.90;;;;;;;27.88;41.66;101763.47;5030618;28;20033;-78
2022/07/19 06:35:11;;;;;;;2.10;1.80;;;;;;;27.88;41.59;101759.00;5030901;28;20037;-78
2022/07/19 06:37:36;;;;;;;2.30;2.08;;;;;;;27.90;41.77;101756.25;5030433;28;20033;-78
2022/07/19 06:40:02;;;;;;;2.30;1.90;;;;;;;27.88;41.58;101766.16;5029825;28;20042;-78
2022/07/19 06:42:27;;;;;;;2.20;1.90;;;;;;;27.87;41.74;101767.13;5028942;28;20087;-78
2022/07/19 06:44:53;;;;;;;2.25;2.00;;;;;;;27.87;41.73;101759.09;5030373;28;20059;-78
2022/07/19 06:47:18;;;;;;;2.47;2.00;;;;;;;27.87;42.06;101767.13;5030521;28;20030;-78
2022/07/19 06:49:43;;;;;;;2.40;1.80;;;;;;;27.89;41.80;101767.91;5029825;28;20033;-76
2022/07/19 06:52:09;;;;;;;2.40;1.90;;;;;;;27.87;42.06;101762.63;5030231;28;20422;-78
2022/07/19 06:54:34;;;;;;;2.30;1.70;;;;;;;27.90;41.78;101754.44;5028555;28;20392;-78
2022/07/19 06:57:00;;;;;;;2.13;1.77;;;;;;;27.91;42.12;101753.50;5030014;28;20033;-78
2022/07/19 06:59:25;;;;;;;2.15;1.80;;;;;;;27.92;41.75;101754.38;5028426;28;20083;-77
2022/07/19 07:01:50;;;;;;;2.00;1.80;;;;;;;27.94;41.88;101752.47;5030163;28;20029;-78
2022/07/19 07:04:16;;;;;;;3.08;1.73;;;;;;;27.93;42.04;101754.31;5029725;28;20048;-78
2022/07/19 07:06:41;;;;;;;2.00;1.80;;;;;;;27.91;41.78;101755.31;5028902;28;20033;-78
2022/07/19 07:09:07;;;;;;;2.47;1.90;;;;;;;27.93;42.16;101754.31;5029457;28;20075;-78
2022/07/19 07:11:32;;;;;;;2.45;1.98;;;;;;;27.94;42.21;101748.00;5030201;28;20033;-78
2022/07/19 07:13:58;;;;;;;2.15;1.83;;;;;;;27.95;42.20;101746.19;5029434;28;20022;-78
2022/07/19 07:16:23;;;;;;;2.20;1.73;;;;;;;27.98;42.22;101751.44;5029617;28;20043;-78
2022/07/19 07:18:48;;;;;;;2.53;1.88;;;;;;;27.99;42.10;101745.13;5028165;28;20422;-78
2022/07/19 07:21:14;;;;;;;2.17;1.80;;;;;;;27.99;41.96;101740.66;5029187;28;20107;-78
2022/07/19 07:23:39;;;;;;;1.90;1.70;;;;;;;28.04;42.08;101743.97;5029534;28;20080;-78
2022/07/19 07:26:05;;;;;;;2.20;1.85;;;;;;;28.04;42.03;101737.75;5029713;28;20043;-78
2022/07/19 07:28:31;;;;;;;2.25;1.80;;;;;;;28.05;41.87;101740.38;5027181;28;20029;-78
2022/07/19 07:30:56;;;;;;;2.10;1.80;;;;;;;28.06;42.02;101735.84;5029363;28;20395;-78
2022/07/19 07:33:22;;;;;;;2.08;1.77;;;;;;;28.06;41.96;101727.81;5028239;28;20034;-78
2022/07/19 07:35:47;;;;;;;2.35;1.90;;;;;;;28.06;42.14;101731.34;5029588;28;20103;-78
2022/07/19 07:38:13;;;;;;;2.30;1.90;;;;;;;28.10;42.30;101735.66;5028886;28;20467;-77
2022/07/19 07:40:38;;;;;;;2.10;1.80;;;;;;;28.11;42.30;101726.69;5029342;28;20057;-78
2022/07/19 07:43:03;;;;;;;2.10;1.73;;;;;;;28.13;42.20;101730.16;5029051;28;20083;-78
2022/07/19 07:45:29;;;;;;;2.17;1.83;;;;;;;28.17;42.01;101728.25;5029490;28;20082;-78
2022/07/19 07:47:55;;;;;;;2.00;1.70;;;;;;;28.15;42.23;101728.31;5028996;28;20471;-78
2022/07/19 07:50:21;;;;;;;1.98;1.67;;;;;;;28.19;42.28;101727.22;5027932;28;20026;-78
2022/07/19 07:52:46;;;;;;;2.10;1.83;;;;;;;28.19;42.38;101723.66;5028674;28;20490;-78
2022/07/19 07:55:11;;;;;;;2.55;1.90;;;;;;;28.20;42.04;101723.59;5027591;28;20064;-79
2022/07/19 07:57:37;;;;;;;2.13;1.88;;;;;;;28.25;42.28;101720.69;5027903;28;20460;-78
2022/07/19 08:00:05;;;;;;;1.98;1.70;;;;;;;28.25;41.87;101718.00;5029191;28;20486;-78
2022/07/19 08:02:31;;;;;;;2.08;1.70;;;;;;;28.26;42.24;101725.13;5029263;28;20093;-78
2022/07/19 08:04:56;;;;;;;2.10;1.77;;;;;;;28.27;42.17;101710.78;5029351;28;20357;-78
2022/07/19 08:07:21;;;;;;;1.92;1.63;;;;;;;28.30;41.91;101707.09;5027038;28;20701;-79
2022/07/19 08:09:47;;;;;;;2.10;1.80;;;;;;;28.32;41.87;101708.72;5029213;28;20037;-78
2022/07/19 08:12:12;;;;;;;2.17;1.77;;;;;;;28.33;42.23;101705.13;5028778;28;20033;-78
2022/07/19 08:14:38;;;;;;;2.42;1.90;;;;;;;28.35;41.94;101703.25;5027958;28;20055;-77
2022/07/19 08:17:03;;;;;;;2.70;1.83;;;;;;;28.36;42.31;101701.44;5028731;28;20057;-77
2022/07/19 08:19:28;;;;;;;1.90;1.70;;;;;;;28.37;41.97;101701.34;5028838;28;20055;-78
2022/07/19 08:21:54;;;;;;;2.00;1.80;;;;;;;28.40;42.18;101703.88;5028525;28;20063;-78
2022/07/19 08:24:19;;;;;;;1.92;1.73;;;;;;;28.39;42.22;101696.78;5028892;28;20030;-78
2022/07/19 08:26:45;;;;;;;1.95;1.63;;;;;;;28.41;42.03;101696.72;5028053;28;20022;-78
2022/07/19 08:29:10;;;;;;;2.13;1.77;;;;;;;28.44;42.14;101697.41;5027404;28;20056;-78
2022/07/19 08:31:35;;;;;;;2.00;1.63;;;;;;;28.44;42.24;101696.56;5027442;28;20403;-79
2022/07/19 08:34:01;;;;;;;2.15;1.85;;;;;;;28.46;42.01;101694.66;5011194;28;20040;-78
2022/07/19 08:36:26;;;;;;;2.33;1.73;;;;;;;28.49;42.00;101687.34;5027491;28;20430;-78
2022/07/19 08:38:51;;;;;;;2.65;1.80;;;;;;;28.49;42.06;101697.19;5028564;28;20045;-78
2022/07/19 08:41:17;;;;;;;1.92;1.73;;;;;;;28.49;41.91;101695.38;5012211;28;20045;-78
2022/07/19 08:43:42;;;;;;;2.00;1.60;;;;;;;28.52;42.21;101697.94;5032295;28;20090;-78
2022/07/19 08:46:08;;;;;;;2.10;1.90;;;;;;;28.52;41.92;101692.56;5032482;28;20387;-78
2022/07/19 08:48:35;;;;;;;2.28;1.70;;;;;;;28.53;41.99;101688.94;5014246;28;20099;-76
2022/07/19 08:51:04;;;;;;;2.17;1.75;;;;;;;28.56;42.28;101690.59;5032096;28;20025;-75
2022/07/19 08:53:31;;;;;;;2.13;1.80;;;;;;;28.57;42.10;101692.34;5032292;28;20021;-77
2022/07/19 08:55:57;;;;;;;2.00;1.70;;;;;;;28.58;42.08;101700.31;5032008;28;20080;-76
2022/07/19 08:58:23;;;;;;;2.05;1.75;;;;;;;28.60;42.26;101689.53;5031826;28;20045;-76
2022/07/19 09:00:49;;;;;;;2.05;1.80;;;;;;;28.61;41.87;101693.91;5032078;28;20329;-77
2022/07/19 09:03:15;;;;;;;1.90;1.70;;;;;;;28.62;41.95;101693.84;5030993;28;20029;-77
2022/07/19 09:05:40;;;;;;;2.10;1.70;;;;;;;28.65;41.94;101695.53;5031945;28;20041;-77
2022/07/19 09:08:17;;;;;;;2.08;1.80;;;;;;;28.65;42.12;101690.16;5031895;28;20029;-78
2022/07/19 09:13:34;;;;;;;2.10;1.70;;;;;;;28.71;42.09;101691.66;5032226;28;20587;-76
2022/07/19 09:15:59;;;;;;;2.17;1.80;;;;;;;28.71;42.28;101697.03;5031402;28;20029;-76
2022/07/19 09:18:30;;;;;;;3.00;1.90;;;;;;;28.73;41.82;101700.53;5030697;28;20467;-77
2022/07/19 09:21:06;;;;;;;2.05;1.70;;;;;;;28.74;41.98;101695.09;5031634;28;20086;-77
2022/07/19 09:23:32;;;;;;;2.30;1.90;;;;;;;28.76;41.85;101692.34;5031410;28;20377;-76
2022/07/19 09:26:03;;;;;;;1.83;1.60;;;;;;;28.77;42.22;101689.59;5031553;28;20124;-75
2022/07/19 09:28:32;;;;;;;2.20;1.60;;;;;;;28.77;42.11;101692.28;5031995;28;20380;-77
2022/07/19 09:30:59;;;;;;;2.35;1.95;;;;;;;28.79;41.87;101692.19;5031762;28;20495;-76
2022/07/19 09:33:27;;;;;;;1.90;1.70;;;;;;;28.79;41.71;101685.00;5031741;28;20108;-76
2022/07/19 09:36:10;;;;;;;2.10;1.80;;;;;;;28.81;41.97;101690.28;5031206;28;20143;-76
2022/07/19 09:38:37;;;;;;;2.58;1.80;;;;;;;28.81;42.40;101685.78;5031294;28;20036;-78
2022/07/19 09:41:13;;;;;;;1.90;1.70;;;;;;;28.83;41.88;101685.72;5031405;28;20079;-77
2022/07/19 09:43:59;;;;;;;2.20;1.77;;;;;;;28.85;41.86;101684.69;5031092;28;20038;-77
2022/07/19 09:46:32;;;;;;;2.10;1.90;;;;;;;28.85;41.83;101682.00;5031578;28;20033;-76
2022/07/19 09:49:12;;;;;;;2.05;1.77;;;;;;;28.87;42.11;101674.75;5031491;28;20584;-75
2022/07/19 09:51:41;;;;;;;1.85;1.60;;;;;;;28.88;42.10;101673.81;5029793;28;20025;-76
2022/07/19 09:54:08;;;;;;;1.85;1.60;;;;;;;28.89;41.85;101674.69;5030940;28;20133;-76
2022/07/19 09:56:36;;;;;;;2.33;1.80;;;;;;;28.91;41.67;101679.00;5029573;28;20033;-78
2022/07/19 09:59:01;;;;;;;1.95;1.70;;;;;;;28.92;42.05;101674.50;5031160;28;20029;-78
2022/07/19 10:01:28;;;;;;;2.25;1.63;;;;;;;28.93;42.00;101674.44;5030816;28;20033;-77
2022/07/19 10:03:57;;;;;;;2.00;1.70;;;;;;;28.94;42.12;101672.63;5030550;28;20372;-79
2022/07/19 10:06:25;;;;;;;2.30;1.88;;;;;;;28.95;42.14;101674.38;5030907;28;20479;-77
2022/07/19 10:08:50;;;;;;;2.10;1.70;;;;;;;28.96;41.75;101670.75;5031338;28;20025;-77
2022/07/19 10:11:17;;;;;;;2.17;1.75;;;;;;;28.97;41.97;101667.97;5030795;28;20464;-77
2022/07/19 10:13:42;;;;;;;1.92;1.60;;;;;;;28.98;41.60;101663.47;5030446;28;20124;-77
2022/07/19 10:16:15;;;;;;;3.20;1.70;;;;;;;28.98;41.84;101672.38;5030871;28;20797;-77
2022/07/19 10:18:54;;;;;;;2.10;1.70;;;;;;;29.00;42.02;101661.59;5030997;28;20468;-77
2022/07/19 10:21:20;;;;;;;2.53;1.70;;;;;;;29.02;41.63;101654.31;5030106;28;20032;-79
2022/07/19 10:23:52;;;;;;;2.20;1.80;;;;;;;29.03;41.81;101656.06;5029228;28;20099;-77
2022/07/19 10:26:41;;;;;;;2.10;1.73;;;;;;;29.04;42.07;101658.66;5031018;28;20387;-77
2022/07/19 10:29:16;;;;;;;1.85;1.65;;;;;;;29.04;41.75;101652.41;5030084;28;20033;-77
2022/07/19 10:31:43;;;;;;;2.67;1.80;;;;;;;29.05;41.73;101652.34;5030612;28;20037;-78
2022/07/19 10:34:20;;;;;;;2.33;1.80;;;;;;;29.08;41.77;101655.81;5029962;28;20029;-77
2022/07/19 10:36:48;;;;;;;2.35;1.70;;;;;;;29.09;41.60;101646.84;5030071;28;20053;-77
2022/07/19 10:39:20;;;;;;;2.00;1.80;;;;;;;29.10;41.81;101641.34;5030444;28;20041;-78
2022/07/19 10:42:08;;;;;;;2.00;1.77;;;;;;;29.11;41.68;101648.47;5029857;28;20045;-76
2022/07/19 10:44:35;;;;;;;2.03;1.73;;;;;;;29.13;41.68;101645.72;5030131;28;20029;-77
2022/07/19 10:47:00;;;;;;;2.10;1.67;;;;;;;29.14;42.03;101645.66;5029056;28;20036;-78
2022/07/19 10:49:45;;;;;;;1.90;1.65;;;;;;;29.16;41.94;101637.47;5029667;28;20037;-77
2022/07/19 10:52:29;;;;;;;1.70;1.50;;;;;;;29.16;42.12;101632.97;5029317;28;20049;-77
2022/07/19 10:55:25;;;;;;;2.25;1.80;;;;;;;29.18;41.74;101632.91;5029132;28;20069;-78
2022/07/19 10:58:09;;;;;;;2.30;1.60;;;;;;;29.18;41.98;101628.41;5029758;28;20083;-76
2022/07/19 11:00:47;;;;;;;;;;;;;;;29.22;41.88;101637.16;5029096;28;20025;-77
2022/07/19 11:03:22;;;;;;;2.05;1.60;;;;;;;29.23;41.96;101626.34;5029688;28;19917;-77
2022/07/19 11:06:02;;;;;;;1.80;1.65;;;;;;;29.22;41.66;101621.91;5029766;28;20033;-77
2022/07/19 11:08:42;;;;;;;2.30;1.83;;;;;;;29.23;42.06;101628.16;5029993;28;20021;-77
2022/07/19 11:11:10;;;;;;;2.20;1.90;;;;;;;29.23;42.09;101620.97;5023880;28;20029;-77
2022/07/19 11:13:37;;;;;;;1.73;1.60;;;;;;;29.25;41.74;101628.97;5029822;28;20483;-77
2022/07/19 11:16:03;;;;;;;2.42;1.70;;;;;;;29.25;41.71;101621.78;5029669;28;20029;-75
2022/07/19 11:18:30;;;;;;;2.63;1.95;;;;;;;29.27;41.94;101611.84;5028097;28;20041;-77
2022/07/19 11:21:01;;;;;;;2.10;1.80;;;;;;;29.27;41.97;101609.16;5028019;28;20041;-77
2022/07/19 11:23:32;;;;;;;1.90;1.63;;;;;;;29.28;41.69;101605.47;5029576;28;20513;-76
2022/07/19 11:26:14;;;;;;;1.95;1.70;;;;;;;29.29;41.91;101603.66;5029172;28;20033;-76
2022/07/19 11:28:41;;;;;;;1.98;1.70;;;;;;;29.30;41.96;101598.22;5029559;28;20025;-76